createdAt,value
2022-07-27T00:01:19.811Z,8.63
2022-07-27T00:03:48.521Z,8.50
2022-07-27T00:06:17.413Z,9.47
2022-07-27T00:08:45.943Z,9.17
2022-07-27T00:11:16.160Z,9.20
2022-07-27T00:13:45.224Z,8.37
2022-07-27T00:16:13.822Z,8.10
2022-07-27T00:18:42.398Z,7.90
2022-07-27T00:21:10.925Z,8.47
2022-07-27T00:23:39.428Z,8.70
2022-07-27T00:26:07.946Z,8.33
2022-07-27T00:28:37.798Z,9.03
2022-07-27T00:31:07.081Z,7.83
2022-07-27T00:33:35.619Z,7.77
2022-07-27T00:36:04.283Z,8.30
2022-07-27T00:38:32.754Z,8.20
2022-07-27T00:41:01.265Z,9.40
2022-07-27T00:43:29.837Z,7.80
2022-07-27T00:45:59.731Z,7.90
2022-07-27T00:48:33.207Z,8.00
2022-07-27T00:51:02.210Z,8.50
2022-07-27T00:53:30.726Z,7.60
2022-07-27T00:56:00.269Z,8.03
2022-07-27T00:58:30.578Z,7.70
2022-07-27T01:01:00.460Z,7.90
2022-07-27T01:03:29.746Z,8.23
2022-07-27T01:05:59.002Z,7.67
2022-07-27T01:08:28.755Z,8.30
2022-07-27T01:10:58.767Z,7.83
2022-07-27T01:13:30.951Z,8.10
2022-07-27T01:16:01.103Z,8.20
2022-07-27T01:18:31.931Z,8.53
2022-07-27T01:21:01.922Z,8.27
2022-07-27T01:23:33.677Z,8.17
2022-07-27T01:26:02.913Z,8.50
2022-07-27T01:28:31.636Z,7.10
2022-07-27T01:31:00.306Z,7.67
2022-07-27T01:33:28.800Z,8.10
2022-07-27T01:35:58.388Z,7.00
2022-07-27T01:38:26.963Z,7.60
2022-07-27T01:40:57.387Z,8.30
2022-07-27T01:43:25.907Z,7.83
2022-07-27T01:45:54.374Z,7.53
2022-07-27T01:48:22.976Z,7.87
2022-07-27T01:50:52.141Z,7.77
2022-07-27T01:53:21.413Z,7.80
2022-07-27T01:55:50.070Z,6.93
2022-07-27T01:58:21.223Z,7.63
2022-07-27T02:00:49.965Z,7.50
2022-07-27T02:03:18.779Z,7.93
2022-07-27T02:05:47.439Z,7.17
2022-07-27T02:08:16.112Z,7.00
2022-07-27T02:10:59.333Z,7.50
2022-07-27T02:13:29.611Z,7.63
2022-07-27T02:15:58.198Z,7.73
2022-07-27T02:18:35.850Z,7.37
2022-07-27T02:21:06.061Z,7.43
2022-07-27T02:23:35.290Z,15.07
2022-07-27T02:26:04.520Z,8.07
2022-07-27T02:28:34.529Z,7.60
2022-07-27T02:31:03.308Z,6.93
2022-07-27T02:33:31.804Z,7.20
2022-07-27T02:36:00.397Z,7.17
2022-07-27T02:38:29.378Z,7.10
2022-07-27T02:40:58.194Z,7.60
2022-07-27T02:43:26.639Z,7.60
2022-07-27T02:45:56.693Z,6.87
2022-07-27T02:48:25.160Z,7.40
2022-07-27T02:50:53.716Z,7.40
2022-07-27T02:53:22.144Z,7.37
2022-07-27T02:55:50.878Z,7.53
2022-07-27T02:58:19.348Z,8.00
2022-07-27T03:00:48.209Z,7.60
2022-07-27T03:03:18.083Z,7.50
2022-07-27T03:05:46.869Z,7.50
2022-07-27T03:08:15.351Z,7.10
2022-07-27T03:10:48.584Z,6.97
2022-07-27T03:13:17.383Z,7.43
2022-07-27T03:15:46.019Z,7.13
2022-07-27T03:18:14.600Z,6.70
2022-07-27T03:20:44.620Z,7.63
2022-07-27T03:23:13.221Z,7.33
2022-07-27T03:25:41.918Z,7.47
2022-07-27T03:28:10.497Z,7.80
2022-07-27T03:30:39.044Z,7.80
2022-07-27T03:33:07.673Z,7.83
2022-07-27T03:35:36.410Z,7.63
2022-07-27T03:38:06.325Z,8.37
2022-07-27T03:40:35.087Z,7.90
2022-07-27T03:43:03.570Z,8.63
2022-07-27T03:45:32.114Z,7.60
2022-07-27T03:48:00.633Z,7.10
2022-07-27T03:50:30.229Z,7.77
2022-07-27T03:52:58.765Z,7.83
2022-07-27T03:55:29.042Z,9.00
2022-07-27T03:57:57.568Z,8.33
2022-07-27T04:00:26.093Z,9.27
2022-07-27T04:02:54.663Z,9.23
2022-07-27T04:05:23.201Z,7.87
2022-07-27T04:07:57.906Z,10.27
2022-07-27T04:10:30.020Z,8.00
2022-07-27T04:13:00.589Z,8.40
2022-07-27T04:15:30.332Z,7.23
2022-07-27T04:17:58.998Z,7.60
2022-07-27T04:20:27.814Z,7.77
2022-07-27T04:22:56.996Z,7.70
2022-07-27T04:25:25.540Z,7.27
2022-07-27T04:27:56.296Z,8.53
2022-07-27T04:30:25.255Z,8.00
2022-07-27T04:32:54.234Z,8.50
2022-07-27T04:35:26.561Z,8.20
2022-07-27T04:37:58.278Z,7.57
2022-07-27T04:40:30.810Z,9.03
2022-07-27T04:43:01.030Z,7.47
2022-07-27T04:45:29.805Z,10.60
2022-07-27T04:47:58.419Z,7.67
2022-07-27T04:50:26.889Z,8.07
2022-07-27T04:53:00.026Z,8.50
2022-07-27T04:55:28.731Z,8.17
2022-07-27T04:57:57.255Z,7.23
2022-07-27T05:00:27.174Z,7.43
2022-07-27T05:02:55.656Z,7.93
2022-07-27T05:05:24.339Z,8.60
2022-07-27T05:07:52.817Z,10.30
2022-07-27T05:10:21.430Z,11.43
2022-07-27T05:12:50.253Z,14.33
2022-07-27T05:15:19.634Z,9.67
2022-07-27T05:17:49.942Z,8.87
2022-07-27T05:20:18.420Z,8.00
2022-07-27T05:22:46.959Z,6.93
2022-07-27T05:25:15.492Z,8.63
2022-07-27T05:27:54.613Z,8.97
2022-07-27T05:30:24.725Z,12.23
2022-07-27T05:32:54.990Z,7.80
2022-07-27T05:35:23.855Z,7.40
2022-07-27T05:37:52.528Z,7.10
2022-07-27T05:40:21.087Z,7.97
2022-07-27T05:42:49.560Z,7.90
2022-07-27T05:45:18.100Z,8.47
2022-07-27T05:47:46.363Z,7.40
2022-07-27T05:50:17.483Z,9.07
2022-07-27T05:52:45.884Z,8.40
2022-07-27T05:55:15.050Z,11.17
2022-07-27T05:57:43.686Z,13.23
2022-07-27T06:00:13.266Z,10.57
2022-07-27T06:02:43.075Z,13.02
2022-07-27T06:05:15.472Z,20.67
2022-07-27T06:07:59.447Z,12.40
2022-07-27T06:10:29.790Z,9.35
2022-07-27T06:12:58.381Z,8.43
2022-07-27T06:15:26.724Z,9.60
2022-07-27T06:17:55.487Z,9.10
2022-07-27T06:20:25.003Z,8.93
2022-07-27T06:22:57.266Z,9.13
2022-07-27T06:25:34.429Z,10.00
2022-07-27T06:28:04.377Z,10.40
2022-07-27T06:30:33.162Z,7.93
2022-07-27T06:33:04.307Z,11.35
2022-07-27T06:35:34.007Z,14.90
2022-07-27T06:38:04.345Z,8.73
2022-07-27T06:40:33.368Z,8.00
2022-07-27T06:43:01.662Z,9.80
2022-07-27T06:45:30.119Z,10.93
2022-07-27T06:47:58.424Z,8.98
2022-07-27T06:50:27.013Z,9.63
2022-07-27T06:52:55.280Z,7.70
2022-07-27T06:55:25.052Z,9.00
2022-07-27T06:57:53.327Z,9.80
2022-07-27T07:00:21.979Z,9.13
2022-07-27T07:02:55.021Z,11.15
2022-07-27T07:05:24.237Z,13.30
2022-07-27T07:07:53.139Z,10.88
2022-07-27T07:10:23.989Z,10.80
2022-07-27T07:12:56.133Z,8.82
2022-07-27T07:15:26.447Z,9.90
2022-07-27T07:17:55.158Z,10.13
2022-07-27T07:20:24.191Z,9.23
2022-07-27T07:22:52.639Z,9.80
2022-07-27T07:25:21.236Z,10.43
2022-07-27T07:27:50.523Z,9.57
2022-07-27T07:30:20.398Z,10.68
2022-07-27T07:32:49.046Z,9.70
2022-07-27T07:35:17.674Z,9.55
2022-07-27T07:37:49.745Z,10.57
2022-07-27T07:43:08.515Z,9.40
2022-07-27T07:45:47.171Z,8.32
2022-07-27T07:48:21.896Z,10.00
2022-07-27T07:50:52.355Z,8.93
2022-07-27T07:53:23.099Z,9.25
2022-07-27T07:55:52.093Z,7.07
2022-07-27T07:58:20.757Z,7.80
2022-07-27T08:00:50.545Z,7.90
2022-07-27T08:03:19.399Z,8.88
2022-07-27T08:05:47.895Z,9.77
2022-07-27T08:08:17.172Z,8.00
2022-07-27T08:10:45.506Z,7.10
2022-07-27T08:13:21.659Z,5.63
2022-07-27T08:15:52.665Z,10.57
2022-07-27T08:18:21.743Z,4.43
2022-07-27T08:20:50.540Z,3.97
2022-07-27T08:23:18.950Z,4.82
2022-07-27T08:25:47.300Z,5.13
2022-07-27T08:28:16.202Z,9.90
2022-07-27T08:30:44.603Z,5.60
2022-07-27T08:33:14.617Z,5.78
2022-07-27T08:35:43.171Z,6.20
2022-07-27T08:38:11.510Z,6.68
2022-07-27T08:40:43.729Z,6.38
2022-07-27T08:43:21.538Z,6.80
2022-07-27T08:45:57.288Z,7.20
2022-07-27T08:48:28.783Z,6.88
2022-07-27T08:50:57.543Z,7.60
2022-07-27T08:53:26.500Z,9.35
2022-07-27T08:56:16.235Z,6.40
2022-07-27T08:58:46.170Z,7.28
2022-07-27T09:01:14.539Z,8.15
2022-07-27T09:03:44.273Z,6.28
2022-07-27T09:06:13.507Z,6.25
2022-07-27T09:08:44.018Z,6.40
2022-07-27T09:11:16.241Z,6.78
2022-07-27T09:13:44.603Z,6.50
2022-07-27T09:16:18.181Z,6.18
2022-07-27T09:18:59.533Z,5.35
2022-07-27T09:21:29.147Z,5.57
2022-07-27T09:24:18.088Z,5.53
2022-07-27T09:27:04.387Z,5.30
2022-07-27T09:29:36.408Z,5.68
2022-07-27T09:32:15.423Z,5.97
2022-07-27T09:34:45.754Z,5.75
2022-07-27T09:37:25.113Z,6.40
2022-07-27T09:40:11.544Z,6.55
2022-07-27T09:43:08.791Z,6.68
2022-07-27T09:45:34.743Z,6.25
2022-07-27T09:48:15.358Z,6.05
2022-07-27T09:51:01.251Z,5.75
2022-07-27T09:53:43.690Z,5.35
2022-07-27T09:56:16.123Z,5.80
2022-07-27T09:58:47.202Z,6.18
2022-07-27T10:01:18.176Z,5.80
2022-07-27T10:03:47.648Z,6.47
2022-07-27T10:06:17.602Z,6.03
2022-07-27T10:08:48.574Z,5.68
2022-07-27T10:11:17.583Z,5.78
2022-07-27T10:13:46.032Z,6.05
2022-07-27T10:16:18.908Z,10.05
2022-07-27T10:18:56.474Z,5.65
2022-07-27T10:21:26.566Z,5.32
2022-07-27T10:23:56.587Z,5.72
2022-07-27T10:26:33.694Z,5.55
2022-07-27T10:29:04.886Z,4.80
2022-07-27T10:31:35.033Z,5.32
2022-07-27T10:34:05.564Z,4.80
2022-07-27T10:36:54.036Z,5.53
2022-07-27T10:39:40.569Z,5.95
2022-07-27T10:42:27.188Z,5.97
2022-07-27T10:45:01.879Z,6.22
2022-07-27T10:47:41.934Z,6.60
2022-07-27T10:50:29.921Z,6.03
2022-07-27T10:53:02.537Z,6.53
2022-07-27T10:55:47.405Z,6.10
2022-07-27T10:58:51.368Z,5.90
2022-07-27T11:01:21.592Z,5.88
2022-07-27T11:03:55.400Z,6.25
2022-07-27T11:06:33.180Z,5.78
2022-07-27T11:10:00.182Z,6.20
2022-07-27T11:11:54.787Z,6.30
2022-07-27T11:14:30.900Z,5.43
2022-07-27T11:17:32.302Z,6.68
2022-07-27T11:19:54.490Z,5.78
2022-07-27T11:23:03.232Z,5.70
2022-07-27T11:25:23.530Z,5.90
2022-07-27T11:27:52.598Z,6.30
2022-07-27T11:30:25.824Z,6.53
2022-07-27T11:32:54.996Z,6.07
2022-07-27T11:35:23.641Z,5.82
2022-07-27T11:38:02.785Z,5.93
2022-07-27T11:43:42.630Z,5.90
2022-07-27T11:46:16.090Z,6.63
2022-07-27T11:49:05.869Z,6.38
2022-07-27T11:51:35.847Z,6.30
2022-07-27T11:54:06.426Z,6.10
2022-07-27T11:56:39.268Z,5.93
2022-07-27T11:59:16.294Z,5.78
2022-07-27T12:01:48.348Z,5.97
2022-07-27T12:04:28.152Z,6.47
2022-07-27T12:07:00.707Z,6.18
2022-07-27T12:09:38.584Z,5.88
2022-07-27T12:12:14.405Z,5.57
2022-07-27T12:14:46.002Z,6.47
2022-07-27T12:17:27.265Z,6.40
2022-07-27T12:20:01.221Z,6.60
2022-07-27T12:22:35.663Z,5.97
2022-07-27T12:25:16.686Z,5.90
2022-07-27T12:28:05.846Z,5.47
2022-07-27T12:30:36.797Z,5.18
2022-07-27T12:33:08.129Z,5.25
2022-07-27T12:35:46.645Z,5.53
2022-07-27T12:38:16.384Z,5.00
2022-07-27T12:40:47.402Z,4.93
2022-07-27T12:43:19.970Z,5.47
2022-07-27T12:45:49.379Z,5.78
2022-07-27T12:48:19.840Z,5.35
2022-07-27T12:50:58.093Z,5.25
2022-07-27T12:53:26.557Z,5.10
2022-07-27T12:55:57.725Z,5.00
2022-07-27T12:58:27.772Z,5.22
2022-07-27T13:00:56.230Z,5.65
2022-07-27T13:03:24.701Z,6.38
2022-07-27T13:05:53.432Z,6.13
2022-07-27T13:08:22.594Z,5.50
2022-07-27T13:10:52.501Z,5.13
2022-07-27T13:13:24.646Z,6.00
2022-07-27T13:15:54.735Z,5.30
2022-07-27T13:18:24.008Z,5.38
2022-07-27T13:20:53.702Z,5.70
2022-07-27T13:23:22.328Z,5.32
2022-07-27T13:25:50.937Z,5.20
2022-07-27T13:28:19.266Z,5.22
2022-07-27T13:30:47.574Z,4.95
2022-07-27T13:33:17.288Z,5.28
2022-07-27T13:35:45.915Z,4.35
2022-07-27T13:38:16.737Z,4.38
2022-07-27T13:40:45.823Z,4.28
2022-07-27T13:43:14.618Z,4.32
2022-07-27T13:45:43.888Z,4.10
2022-07-27T13:48:13.320Z,4.75
2022-07-27T13:50:43.316Z,4.07
2022-07-27T13:53:15.343Z,4.40
2022-07-27T13:55:45.376Z,4.78
2022-07-27T13:58:14.022Z,4.00
2022-07-27T14:00:43.320Z,4.40
2022-07-27T14:03:12.267Z,4.22
2022-07-27T14:05:45.444Z,4.10
2022-07-27T14:08:19.138Z,3.88
2022-07-27T14:10:47.907Z,4.32
2022-07-27T14:13:17.728Z,4.45
2022-07-27T14:15:52.957Z,4.10
2022-07-27T14:18:22.714Z,3.95
2022-07-27T14:20:52.837Z,3.95
2022-07-27T14:23:22.272Z,4.45
2022-07-27T14:25:50.763Z,4.55
2022-07-27T14:28:19.702Z,4.45
2022-07-27T14:30:49.276Z,4.55
2022-07-27T14:33:18.432Z,6.78
2022-07-27T14:35:47.475Z,3.85
2022-07-27T14:38:25.120Z,4.45
2022-07-27T14:41:01.047Z,4.32
2022-07-27T14:43:30.053Z,5.25
2022-07-27T14:45:59.525Z,4.45
2022-07-27T14:49:02.853Z,4.25
2022-07-27T14:51:17.063Z,4.10
2022-07-27T14:53:47.350Z,4.65
2022-07-27T14:56:16.068Z,4.63
2022-07-27T14:58:45.000Z,4.40
2022-07-27T15:01:16.749Z,4.40
2022-07-27T15:03:46.627Z,4.25
2022-07-27T15:06:15.152Z,4.22
2022-07-27T15:08:43.635Z,4.60
2022-07-27T15:11:13.585Z,4.78
2022-07-27T15:13:42.189Z,5.05
2022-07-27T15:16:11.959Z,5.32
2022-07-27T15:18:40.789Z,5.88
2022-07-27T15:21:13.455Z,5.80
2022-07-27T15:23:43.405Z,10.43
2022-07-27T15:26:13.841Z,4.72
2022-07-27T15:28:44.175Z,6.63
2022-07-27T15:31:13.563Z,4.65
2022-07-27T15:33:42.234Z,4.32
2022-07-27T15:36:31.335Z,5.25
2022-07-27T15:39:00.295Z,4.60
2022-07-27T15:41:30.856Z,4.50
2022-07-27T15:43:59.751Z,4.95
2022-07-27T15:46:28.381Z,4.65
2022-07-27T15:48:57.069Z,5.07
2022-07-27T15:51:26.229Z,4.15
2022-07-27T15:53:55.997Z,4.88
2022-07-27T15:56:24.671Z,5.07
2022-07-27T15:58:54.547Z,4.22
2022-07-27T16:01:23.643Z,4.65
2022-07-27T16:04:03.829Z,5.15
2022-07-27T16:06:38.648Z,4.80
2022-07-27T16:09:09.542Z,4.50
2022-07-27T16:11:38.709Z,4.70
2022-07-27T16:14:08.569Z,5.35
2022-07-27T16:16:40.233Z,4.57
2022-07-27T16:19:12.599Z,5.03
2022-07-27T16:21:54.909Z,5.28
2022-07-27T16:24:25.414Z,4.50
2022-07-27T16:26:54.458Z,4.60
2022-07-27T16:29:24.737Z,5.32
2022-07-27T16:31:58.050Z,5.32
2022-07-27T16:34:28.516Z,5.72
2022-07-27T16:36:57.771Z,5.47
2022-07-27T16:39:26.667Z,5.30
2022-07-27T16:41:55.407Z,5.40
2022-07-27T16:44:25.389Z,5.60
2022-07-27T16:46:54.165Z,6.15
2022-07-27T16:49:33.515Z,6.00
2022-07-27T16:52:05.846Z,6.00
2022-07-27T16:54:39.366Z,6.72
2022-07-27T16:57:09.298Z,6.80
2022-07-27T16:59:40.140Z,6.63
2022-07-27T17:02:08.943Z,6.95
2022-07-27T17:04:37.617Z,6.57
2022-07-27T17:07:06.289Z,5.93
2022-07-27T17:09:41.446Z,6.80
2022-07-27T17:12:10.280Z,6.90
2022-07-27T17:14:41.121Z,6.85
2022-07-27T17:17:09.971Z,7.13
2022-07-27T17:19:38.690Z,6.95
2022-07-27T17:22:07.296Z,7.15
2022-07-27T17:24:38.192Z,6.88
2022-07-27T17:27:07.000Z,7.72
2022-07-27T17:29:35.431Z,7.68
2022-07-27T17:32:05.523Z,7.57
2022-07-27T17:34:34.079Z,7.85
2022-07-27T17:37:02.543Z,6.90
2022-07-27T17:39:31.955Z,6.90
2022-07-27T17:42:00.424Z,7.57
2022-07-27T17:44:28.879Z,7.72
2022-07-27T17:46:57.413Z,7.07
2022-07-27T17:49:27.458Z,7.88
2022-07-27T17:51:56.029Z,6.88
2022-07-27T17:54:25.900Z,6.88
2022-07-27T17:56:54.416Z,6.90
2022-07-27T17:59:38.633Z,6.70
2022-07-27T18:02:07.466Z,7.30
2022-07-27T18:04:39.634Z,7.45
2022-07-27T18:07:09.204Z,7.07
2022-07-27T18:09:37.716Z,7.20
2022-07-27T18:12:06.948Z,6.90
2022-07-27T18:14:35.575Z,6.95
2022-07-27T18:17:07.071Z,7.30
2022-07-27T18:19:37.013Z,7.90
2022-07-27T18:22:05.556Z,6.95
2022-07-27T18:24:35.764Z,8.00
2022-07-27T18:27:04.339Z,8.23
2022-07-27T18:29:32.796Z,8.15
2022-07-27T18:32:01.316Z,8.23
2022-07-27T18:34:29.784Z,9.32
2022-07-27T18:36:59.723Z,9.40
2022-07-27T18:39:32.229Z,9.25
2022-07-27T18:42:03.948Z,9.65
2022-07-27T18:44:38.571Z,9.57
2022-07-27T18:47:07.994Z,8.30
2022-07-27T18:49:36.700Z,7.55
2022-07-27T18:52:07.320Z,7.28
2022-07-27T18:54:35.918Z,7.10
2022-07-27T18:57:04.533Z,8.20
2022-07-27T18:59:33.722Z,7.35
2022-07-27T19:02:09.570Z,10.07
2022-07-27T19:04:38.062Z,7.65
2022-07-27T19:07:11.172Z,8.18
2022-07-27T19:09:43.478Z,7.30
2022-07-27T19:12:12.057Z,6.78
2022-07-27T19:14:40.523Z,9.05
2022-07-27T19:17:14.718Z,7.13
2022-07-27T19:19:44.456Z,7.13
2022-07-27T19:22:15.124Z,7.90
2022-07-27T19:24:43.693Z,10.70
2022-07-27T19:27:12.159Z,9.52
2022-07-27T19:29:41.487Z,10.40
2022-07-27T19:32:11.050Z,10.40
2022-07-27T19:34:39.867Z,9.63
2022-07-27T19:37:08.921Z,9.35
2022-07-27T19:39:57.200Z,10.18
2022-07-27T19:42:28.276Z,9.13
2022-07-27T19:44:56.963Z,9.63
2022-07-27T19:47:25.819Z,9.20
2022-07-27T19:49:55.056Z,9.50
2022-07-27T19:52:23.646Z,14.63
2022-07-27T19:54:53.526Z,14.23
2022-07-27T19:57:22.134Z,14.38
2022-07-27T19:59:55.722Z,13.35
2022-07-27T20:02:25.409Z,11.23
2022-07-27T20:04:53.959Z,12.98
2022-07-27T20:07:22.471Z,11.05
2022-07-27T20:09:52.387Z,9.82
2022-07-27T20:12:21.562Z,10.38
2022-07-27T20:14:50.000Z,10.23
2022-07-27T20:17:18.836Z,11.23
2022-07-27T20:19:47.319Z,14.50
2022-07-27T20:22:15.892Z,11.50
2022-07-27T20:24:44.530Z,10.35
2022-07-27T20:27:14.428Z,13.82
2022-07-27T20:29:42.943Z,10.65
2022-07-27T20:32:12.703Z,11.90
2022-07-27T20:34:41.171Z,10.55
2022-07-27T20:37:12.026Z,10.88
2022-07-27T20:39:40.486Z,12.18
2022-07-27T20:42:09.059Z,12.32
2022-07-27T20:44:38.934Z,10.77
2022-07-27T20:47:08.165Z,12.05
2022-07-27T20:49:36.827Z,9.55
2022-07-27T20:52:05.618Z,9.90
2022-07-27T20:54:35.476Z,9.40
2022-07-27T20:57:04.126Z,8.93
2022-07-27T20:59:33.334Z,10.23
2022-07-27T21:02:03.346Z,8.52
2022-07-27T21:04:31.973Z,8.77
2022-07-27T21:07:00.467Z,8.50
2022-07-27T21:09:28.959Z,9.63
2022-07-27T21:12:00.919Z,9.20
2022-07-27T21:14:29.342Z,8.40
2022-07-27T21:16:57.908Z,7.82
2022-07-27T21:19:27.816Z,8.45
2022-07-27T21:21:56.349Z,9.10
2022-07-27T21:24:26.128Z,8.95
2022-07-27T21:26:54.631Z,8.95
2022-07-27T21:29:27.803Z,8.68
2022-07-27T21:32:01.292Z,12.50
2022-07-27T21:34:31.186Z,11.20
2022-07-27T21:36:59.839Z,9.90
2022-07-27T21:39:29.029Z,11.20
2022-07-27T21:42:01.874Z,10.88
2022-07-27T21:44:31.166Z,10.98
2022-07-27T21:46:59.760Z,12.00
2022-07-27T21:49:34.602Z,11.82
2022-07-27T21:52:03.532Z,11.70
2022-07-27T21:54:32.000Z,11.45
2022-07-27T21:57:00.739Z,9.68
2022-07-27T21:59:29.259Z,10.38
2022-07-27T22:01:58.957Z,9.77
2022-07-27T22:04:28.147Z,10.17
2022-07-27T22:06:58.171Z,10.73
2022-07-27T22:09:26.740Z,9.75
2022-07-27T22:11:56.639Z,9.60
2022-07-27T22:14:25.487Z,10.20
2022-07-27T22:16:54.213Z,9.35
2022-07-27T22:19:23.525Z,8.82
2022-07-27T22:21:52.101Z,10.00
2022-07-27T22:24:22.001Z,9.20
2022-07-27T22:26:50.542Z,9.43
2022-07-27T22:29:19.065Z,9.50
2022-07-27T22:31:47.652Z,9.75
2022-07-27T22:34:16.634Z,9.93
2022-07-27T22:36:45.405Z,9.80
2022-07-27T22:39:14.049Z,10.20
2022-07-27T22:41:44.910Z,11.60
2022-07-27T22:44:13.781Z,10.40
2022-07-27T22:46:44.491Z,10.30
2022-07-27T22:49:13.016Z,10.93
2022-07-27T22:51:49.836Z,10.30
2022-07-27T22:54:21.767Z,9.35
2022-07-27T22:56:51.748Z,11.20
2022-07-27T22:59:20.573Z,9.57
2022-07-27T23:01:49.379Z,9.20
2022-07-27T23:04:18.786Z,9.40
2022-07-27T23:06:47.928Z,9.50
2022-07-27T23:09:16.827Z,10.33
2022-07-27T23:11:45.617Z,9.63
2022-07-27T23:14:15.856Z,10.07
2022-07-27T23:16:45.402Z,10.85
2022-07-27T23:19:13.894Z,12.43
2022-07-27T23:21:43.369Z,10.52
2022-07-27T23:24:13.497Z,11.67
2022-07-27T23:26:43.242Z,10.20
2022-07-27T23:29:11.731Z,11.80
2022-07-27T23:31:42.093Z,12.18
2022-07-27T23:34:10.881Z,12.88
2022-07-27T23:36:39.498Z,10.65
2022-07-27T23:39:09.788Z,9.65
2022-07-27T23:41:38.297Z,10.65
2022-07-27T23:44:07.044Z,10.23
2022-07-27T23:46:35.601Z,11.68
2022-07-27T23:49:05.532Z,10.83
2022-07-27T23:51:34.037Z,11.03
2022-07-27T23:54:02.457Z,10.10
2022-07-27T23:56:30.939Z,11.45
2022-07-27T23:58:59.420Z,11.02
